createdAt,value
2022-08-03T00:01:52.009Z,19.81
2022-08-03T00:04:18.525Z,19.82
2022-08-03T00:06:44.895Z,19.80
2022-08-03T00:09:11.684Z,19.76
2022-08-03T00:11:38.264Z,19.74
2022-08-03T00:14:07.938Z,19.74
2022-08-03T00:16:34.897Z,19.71
2022-08-03T00:19:02.352Z,19.70
2022-08-03T00:21:29.246Z,19.69
2022-08-03T00:23:56.184Z,19.68
2022-08-03T00:26:22.724Z,19.66
2022-08-03T00:28:49.948Z,19.63
2022-08-03T00:31:16.467Z,19.62
2022-08-03T00:33:59.150Z,19.61
2022-08-03T00:36:29.452Z,19.60
2022-08-03T00:38:56.547Z,19.61
2022-08-03T00:41:23.184Z,19.57
2022-08-03T00:43:49.597Z,19.52
2022-08-03T00:46:21.022Z,19.49
2022-08-03T00:48:52.449Z,19.48
2022-08-03T00:51:21.200Z,19.45
2022-08-03T00:53:47.970Z,19.42
2022-08-03T00:56:16.085Z,19.39
2022-08-03T00:58:44.628Z,19.38
2022-08-03T01:01:12.773Z,19.35
2022-08-03T01:03:39.720Z,19.30
2022-08-03T01:06:12.045Z,19.29
2022-08-03T01:08:51.540Z,19.29
2022-08-03T01:11:21.840Z,19.27
2022-08-03T01:14:01.847Z,19.25
2022-08-03T01:16:41.600Z,19.16
2022-08-03T01:19:20.036Z,19.16
2022-08-03T01:21:52.568Z,19.13
2022-08-03T01:24:37.664Z,19.12
2022-08-03T01:27:12.880Z,19.11
2022-08-03T01:29:59.851Z,19.10
2022-08-03T01:33:00.562Z,19.07
2022-08-03T01:35:35.526Z,19.03
2022-08-03T01:38:12.182Z,19.01
2022-08-03T01:40:41.551Z,18.98
2022-08-03T01:43:10.642Z,18.98
2022-08-03T01:45:38.417Z,18.95
2022-08-03T01:48:06.308Z,18.91
2022-08-03T01:50:34.346Z,18.92
2022-08-03T01:53:02.088Z,18.93
2022-08-03T01:55:31.997Z,18.94
2022-08-03T01:58:06.217Z,18.96
2022-08-03T02:00:36.699Z,18.94
2022-08-03T02:03:06.432Z,18.92
2022-08-03T02:05:34.325Z,18.93
2022-08-03T02:08:03.540Z,18.91
2022-08-03T02:10:34.951Z,18.87
2022-08-03T02:13:05.103Z,18.82
2022-08-03T02:15:33.781Z,18.81
2022-08-03T02:18:01.824Z,18.77
2022-08-03T02:20:30.177Z,18.74
2022-08-03T02:22:56.534Z,18.73
2022-08-03T02:25:23.517Z,18.72
2022-08-03T02:28:01.703Z,18.72
2022-08-03T02:30:33.243Z,18.71
2022-08-03T02:33:02.020Z,18.72
2022-08-03T02:35:30.660Z,18.75
2022-08-03T02:38:02.175Z,18.75
2022-08-03T02:40:30.196Z,18.78
2022-08-03T02:43:02.426Z,18.76
2022-08-03T02:45:29.909Z,18.76
2022-08-03T02:48:02.788Z,18.74
2022-08-03T02:50:30.480Z,18.75
2022-08-03T02:52:59.585Z,18.74
2022-08-03T02:55:27.339Z,18.70
2022-08-03T02:57:55.534Z,18.69
2022-08-03T03:00:27.872Z,18.66
2022-08-03T03:02:58.085Z,18.64
2022-08-03T03:05:53.294Z,18.62
2022-08-03T03:08:18.866Z,18.62
2022-08-03T03:10:48.711Z,18.60
2022-08-03T03:13:21.771Z,18.60
2022-08-03T03:15:48.965Z,18.54
2022-08-03T03:18:21.881Z,18.52
2022-08-03T03:20:50.407Z,18.48
2022-08-03T03:23:17.700Z,18.47
2022-08-03T03:25:44.983Z,18.46
2022-08-03T03:28:11.671Z,18.43
2022-08-03T03:30:38.604Z,18.40
2022-08-03T03:33:05.215Z,18.38
2022-08-03T03:35:38.896Z,18.40
2022-08-03T03:38:06.822Z,18.40
2022-08-03T03:40:35.402Z,18.38
2022-08-03T03:43:02.310Z,18.35
2022-08-03T03:45:30.977Z,18.32
2022-08-03T03:48:00.426Z,18.31
2022-08-03T03:50:28.296Z,18.30
2022-08-03T03:52:54.798Z,18.29
2022-08-03T03:55:21.248Z,18.28
2022-08-03T03:57:47.697Z,18.25
2022-08-03T04:00:15.915Z,18.22
2022-08-03T04:02:42.533Z,18.22
2022-08-03T04:05:28.203Z,18.20
2022-08-03T04:08:12.869Z,18.20
2022-08-03T04:11:00.329Z,18.17
2022-08-03T04:13:32.673Z,18.18
2022-08-03T04:15:59.848Z,18.17
2022-08-03T04:18:30.237Z,18.15
2022-08-03T04:20:59.069Z,18.13
2022-08-03T04:23:28.205Z,18.16
2022-08-03T04:25:56.359Z,18.17
2022-08-03T04:28:30.343Z,18.16
2022-08-03T04:31:01.958Z,18.14
2022-08-03T04:33:31.163Z,18.16
2022-08-03T04:36:02.509Z,18.20
2022-08-03T04:38:32.758Z,18.22
2022-08-03T04:41:01.502Z,18.25
2022-08-03T04:43:29.317Z,18.28
2022-08-03T04:45:57.110Z,18.31
2022-08-03T04:48:24.136Z,18.29
2022-08-03T04:50:50.987Z,18.31
2022-08-03T04:53:18.148Z,18.33
2022-08-03T04:55:46.745Z,18.35
2022-08-03T04:58:13.133Z,18.40
2022-08-03T05:00:39.660Z,18.43
2022-08-03T05:03:23.920Z,18.45
2022-08-03T05:06:02.019Z,18.49
2022-08-03T05:08:46.531Z,18.52
2022-08-03T05:11:16.943Z,18.57
2022-08-03T05:13:44.390Z,18.63
2022-08-03T05:16:11.828Z,18.62
2022-08-03T05:18:38.236Z,18.64
2022-08-03T05:21:05.056Z,18.67
2022-08-03T05:23:31.662Z,18.73
2022-08-03T05:25:58.101Z,18.86
2022-08-03T05:28:24.487Z,18.92
2022-08-03T05:30:50.940Z,18.95
2022-08-03T05:33:17.327Z,18.95
2022-08-03T05:36:01.149Z,19.11
2022-08-03T05:38:34.211Z,19.49
2022-08-03T05:41:23.212Z,20.12
2022-08-03T05:43:55.029Z,20.68
2022-08-03T05:46:24.235Z,22.09
2022-08-03T05:48:50.967Z,23.00
2022-08-03T05:51:17.491Z,23.17
2022-08-03T05:53:45.787Z,23.48
2022-08-03T05:56:14.531Z,23.93
2022-08-03T05:58:48.362Z,24.75
2022-08-03T06:01:21.458Z,24.91
2022-08-03T06:03:49.260Z,25.06
2022-08-03T06:06:16.069Z,25.63
2022-08-03T06:08:43.369Z,25.89
2022-08-03T06:11:09.919Z,25.33
2022-08-03T06:13:36.465Z,25.22
2022-08-03T06:16:02.923Z,25.33
2022-08-03T06:18:29.423Z,25.39
2022-08-03T06:20:55.880Z,25.48
2022-08-03T06:23:23.840Z,25.61
2022-08-03T06:26:09.080Z,25.62
2022-08-03T06:28:53.118Z,25.93
2022-08-03T06:31:32.268Z,26.07
2022-08-03T06:34:31.011Z,25.35
2022-08-03T06:36:48.486Z,23.92
2022-08-03T06:39:14.846Z,23.16
2022-08-03T06:41:44.834Z,22.96
2022-08-03T06:44:11.874Z,22.76
2022-08-03T06:46:38.310Z,22.68
2022-08-03T06:49:04.810Z,22.33
2022-08-03T06:52:04.186Z,22.33
2022-08-03T06:54:18.149Z,22.35
2022-08-03T06:56:44.571Z,22.32
2022-08-03T07:00:08.274Z,22.37
2022-08-03T07:01:57.379Z,22.34
2022-08-03T07:04:23.765Z,22.26
2022-08-03T07:06:50.155Z,22.11
2022-08-03T07:09:16.559Z,22.17
2022-08-03T07:11:43.018Z,22.22
2022-08-03T07:14:09.508Z,22.27
2022-08-03T07:16:35.966Z,22.45
2022-08-03T07:19:02.522Z,22.34
2022-08-03T07:21:29.006Z,22.59
2022-08-03T07:23:55.412Z,22.72
2022-08-03T07:26:21.867Z,22.75
2022-08-03T07:28:48.362Z,22.76
2022-08-03T07:31:14.750Z,22.77
2022-08-03T07:33:41.133Z,22.94
2022-08-03T07:36:07.628Z,23.16
2022-08-03T07:38:36.175Z,23.14
2022-08-03T07:41:03.377Z,23.05
2022-08-03T07:43:29.940Z,23.25
2022-08-03T07:45:56.312Z,23.40
2022-08-03T07:48:22.754Z,23.46
2022-08-03T07:50:49.177Z,23.36
2022-08-03T07:53:15.559Z,23.45
2022-08-03T07:55:42.404Z,23.36
2022-08-03T07:58:22.061Z,23.47
2022-08-03T08:00:52.859Z,23.48
2022-08-03T08:03:19.927Z,23.67
2022-08-03T08:05:46.669Z,23.71
2022-08-03T08:08:13.496Z,23.73
2022-08-03T08:10:39.954Z,23.89
2022-08-03T08:13:06.455Z,23.92
2022-08-03T08:15:33.029Z,24.04
2022-08-03T08:18:01.422Z,24.21
2022-08-03T08:20:33.539Z,24.36
2022-08-03T08:23:08.878Z,24.41
2022-08-03T08:25:51.857Z,24.79
2022-08-03T08:28:30.709Z,24.89
2022-08-03T08:31:00.024Z,24.76
2022-08-03T08:33:37.409Z,24.67
2022-08-03T08:36:15.360Z,24.81
2022-08-03T08:38:44.418Z,25.19
2022-08-03T08:41:11.523Z,25.22
2022-08-03T08:43:38.233Z,25.22
2022-08-03T08:46:08.093Z,25.29
2022-08-03T08:48:38.710Z,25.43
2022-08-03T08:51:05.611Z,25.70
2022-08-03T08:53:36.223Z,25.82
2022-08-03T08:56:04.685Z,25.78
2022-08-03T08:58:37.877Z,25.85
2022-08-03T09:01:05.643Z,25.93
2022-08-03T09:03:34.203Z,25.86
2022-08-03T09:06:00.962Z,26.15
2022-08-03T09:08:29.286Z,26.27
2022-08-03T09:10:55.807Z,26.40
2022-08-03T09:13:22.653Z,26.40
2022-08-03T09:16:00.949Z,26.59
2022-08-03T09:18:32.491Z,26.85
2022-08-03T09:21:35.522Z,26.64
2022-08-03T09:24:07.078Z,26.75
2022-08-03T09:26:37.277Z,26.69
2022-08-03T09:29:09.605Z,26.75
2022-08-03T09:31:43.690Z,27.05
2022-08-03T09:34:17.017Z,27.37
2022-08-03T09:36:49.252Z,27.22
2022-08-03T09:39:18.037Z,27.26
2022-08-03T09:42:03.620Z,27.00
2022-08-03T09:44:38.232Z,27.46
2022-08-03T09:47:06.119Z,27.73
2022-08-03T09:49:32.798Z,27.73
2022-08-03T09:52:32.529Z,27.55
2022-08-03T09:55:02.005Z,27.91
2022-08-03T09:57:30.662Z,27.92
2022-08-03T10:00:10.889Z,27.95
2022-08-03T10:02:38.137Z,27.79
2022-08-03T10:05:05.967Z,28.05
2022-08-03T10:07:45.831Z,28.36
2022-08-03T10:10:31.765Z,28.65
2022-08-03T10:13:00.235Z,28.75
2022-08-03T10:16:22.286Z,28.90
2022-08-03T10:18:14.040Z,29.26
2022-08-03T10:20:51.582Z,29.14
2022-08-03T10:23:21.438Z,29.08
2022-08-03T10:25:51.515Z,29.12
2022-08-03T10:28:21.199Z,29.27
2022-08-03T10:30:51.599Z,29.78
2022-08-03T10:33:50.890Z,30.22
2022-08-03T10:36:13.441Z,30.36
2022-08-03T10:38:53.106Z,30.33
2022-08-03T10:41:29.690Z,29.90
2022-08-03T10:44:05.390Z,30.09
2022-08-03T10:46:34.986Z,30.22
2022-08-03T10:49:02.777Z,30.45
2022-08-03T10:51:32.122Z,29.98
2022-08-03T10:54:01.802Z,29.97
2022-08-03T10:56:54.579Z,29.81
2022-08-03T10:59:45.942Z,30.01
2022-08-03T11:02:14.163Z,30.20
2022-08-03T11:04:41.597Z,30.34
2022-08-03T11:07:21.738Z,29.80
2022-08-03T11:09:51.086Z,30.01
2022-08-03T11:12:31.263Z,30.46
2022-08-03T11:15:08.793Z,30.53
2022-08-03T11:17:46.846Z,30.52
2022-08-03T11:20:44.033Z,30.66
2022-08-03T11:23:10.639Z,30.72
2022-08-03T11:26:15.117Z,30.98
2022-08-03T11:28:43.593Z,31.11
2022-08-03T11:31:46.758Z,31.30
2022-08-03T11:34:12.421Z,31.33
2022-08-03T11:37:16.981Z,31.18
2022-08-03T11:39:46.636Z,31.28
2022-08-03T11:42:22.157Z,31.23
2022-08-03T11:44:52.318Z,31.30
2022-08-03T11:47:20.932Z,31.49
2022-08-03T11:49:49.291Z,31.68
2022-08-03T11:52:17.076Z,31.88
2022-08-03T11:54:44.085Z,31.87
2022-08-03T11:57:10.616Z,31.90
2022-08-03T11:59:38.759Z,32.24
2022-08-03T12:02:13.109Z,32.25
2022-08-03T12:05:01.190Z,32.23
2022-08-03T12:08:04.150Z,32.05
2022-08-03T12:10:16.700Z,32.23
2022-08-03T12:12:46.446Z,32.51
2022-08-03T12:15:13.243Z,32.65
2022-08-03T12:17:41.382Z,32.90
2022-08-03T12:20:09.908Z,32.94
2022-08-03T12:22:38.211Z,32.77
2022-08-03T12:25:08.634Z,32.75
2022-08-03T12:27:35.832Z,33.23
2022-08-03T12:30:02.582Z,33.70
2022-08-03T12:32:29.990Z,33.56
2022-08-03T12:35:01.584Z,33.89
2022-08-03T12:37:28.980Z,33.94
2022-08-03T12:40:03.577Z,34.10
2022-08-03T12:42:37.291Z,34.11
2022-08-03T12:45:21.909Z,33.60
2022-08-03T12:48:00.191Z,33.34
2022-08-03T12:50:31.517Z,33.39
2022-08-03T12:52:59.611Z,33.51
2022-08-03T12:55:57.201Z,33.51
2022-08-03T12:58:34.699Z,33.61
2022-08-03T13:01:04.806Z,33.99
2022-08-03T13:03:45.860Z,34.03
2022-08-03T13:06:18.893Z,34.11
2022-08-03T13:08:47.837Z,33.99
2022-08-03T13:11:20.514Z,33.86
2022-08-03T13:13:46.990Z,33.73
2022-08-03T13:16:18.760Z,33.58
2022-08-03T13:18:47.080Z,33.56
2022-08-03T13:21:16.135Z,33.57
2022-08-03T13:23:43.434Z,34.04
2022-08-03T13:26:10.725Z,34.02
2022-08-03T13:28:37.571Z,33.67
2022-08-03T13:31:04.425Z,33.73
2022-08-03T13:33:33.981Z,33.94
2022-08-03T13:36:00.534Z,34.22
2022-08-03T13:38:27.380Z,34.02
2022-08-03T13:40:55.049Z,34.01
2022-08-03T13:43:22.425Z,33.74
2022-08-03T13:45:53.513Z,33.53
2022-08-03T13:48:36.138Z,33.24
2022-08-03T13:51:11.853Z,33.59
2022-08-03T13:53:49.462Z,33.72
2022-08-03T13:56:15.897Z,33.86
2022-08-03T13:58:42.368Z,33.90
2022-08-03T14:01:08.881Z,34.28
2022-08-03T14:03:35.296Z,34.65
2022-08-03T14:06:01.673Z,34.85
2022-08-03T14:08:28.093Z,34.53
2022-08-03T14:10:55.188Z,34.69
2022-08-03T14:13:22.460Z,34.22
2022-08-03T14:15:49.732Z,33.84
2022-08-03T14:18:28.365Z,34.20
2022-08-03T14:20:59.729Z,34.20
2022-08-03T14:23:28.501Z,34.17
2022-08-03T14:25:55.287Z,33.97
2022-08-03T14:28:23.640Z,34.10
2022-08-03T14:30:52.150Z,33.64
2022-08-03T14:33:18.703Z,33.28
2022-08-03T14:35:45.144Z,33.27
2022-08-03T14:38:11.520Z,33.68
2022-08-03T14:40:37.922Z,34.01
2022-08-03T14:43:04.594Z,34.18
2022-08-03T14:45:31.105Z,34.23
2022-08-03T14:50:28.636Z,34.23
2022-08-03T14:50:51.006Z,34.23
2022-08-03T14:53:18.197Z,33.98
2022-08-03T14:55:50.774Z,34.07
2022-08-03T14:58:22.539Z,34.11
2022-08-03T15:00:50.459Z,34.34
2022-08-03T15:03:20.393Z,33.92
2022-08-03T15:05:47.072Z,34.04
2022-08-03T15:08:15.872Z,34.56
2022-08-03T15:10:44.841Z,34.70
2022-08-03T15:13:16.612Z,34.53
2022-08-03T15:15:43.234Z,34.61
2022-08-03T15:18:09.736Z,34.71
2022-08-03T15:20:44.510Z,34.10
2022-08-03T15:23:12.041Z,33.78
2022-08-03T15:26:28.360Z,34.00
2022-08-03T15:28:24.935Z,34.18
2022-08-03T15:30:54.331Z,34.38
2022-08-03T15:33:20.953Z,34.63
2022-08-03T15:35:47.764Z,34.33
2022-08-03T15:38:14.380Z,34.11
2022-08-03T15:40:41.591Z,34.17
2022-08-03T15:43:08.117Z,34.25
2022-08-03T15:45:36.408Z,34.27
2022-08-03T15:48:04.893Z,34.29
2022-08-03T15:50:31.353Z,34.06
2022-08-03T15:53:00.452Z,33.94
2022-08-03T15:55:27.147Z,33.91
2022-08-03T15:59:10.092Z,33.80
2022-08-03T16:00:41.174Z,33.75
2022-08-03T16:03:07.708Z,33.92
2022-08-03T16:05:34.139Z,33.93
2022-08-03T16:08:03.763Z,33.92
2022-08-03T16:10:34.635Z,34.04
2022-08-03T16:13:01.166Z,33.82
2022-08-03T16:15:28.241Z,33.94
2022-08-03T16:17:54.878Z,33.80
2022-08-03T16:20:31.245Z,33.81
2022-08-03T16:23:10.726Z,33.67
2022-08-03T16:25:39.778Z,33.85
2022-08-03T16:28:13.120Z,33.90
2022-08-03T16:30:42.646Z,34.04
2022-08-03T16:33:09.548Z,34.08
2022-08-03T16:35:36.111Z,33.75
2022-08-03T16:38:07.872Z,33.70
2022-08-03T16:40:36.320Z,33.70
2022-08-03T16:43:18.536Z,33.96
2022-08-03T16:45:48.543Z,34.05
2022-08-03T16:48:16.569Z,34.12
2022-08-03T16:50:43.188Z,34.11
2022-08-03T16:53:12.800Z,34.09
2022-08-03T16:55:52.138Z,34.02
2022-08-03T16:58:34.511Z,34.11
2022-08-03T17:01:22.194Z,34.38
2022-08-03T17:04:04.689Z,34.42
2022-08-03T17:06:37.537Z,34.42
2022-08-03T17:09:10.149Z,34.44
2022-08-03T17:11:47.107Z,34.65
2022-08-03T17:14:15.622Z,34.69
2022-08-03T17:16:52.762Z,34.51
2022-08-03T17:19:24.897Z,34.25
2022-08-03T17:21:59.736Z,34.12
2022-08-03T17:24:32.202Z,34.02
2022-08-03T17:27:01.762Z,33.93
2022-08-03T17:29:33.419Z,33.78
2022-08-03T17:32:07.836Z,33.93
2022-08-03T17:34:37.270Z,34.01
2022-08-03T17:37:06.080Z,34.10
2022-08-03T17:39:57.141Z,34.00
2022-08-03T17:42:31.266Z,34.11
2022-08-03T17:45:02.020Z,34.35
2022-08-03T17:47:57.103Z,34.46
2022-08-03T17:50:33.381Z,34.44
2022-08-03T17:53:07.749Z,34.57
2022-08-03T17:55:55.681Z,34.36
2022-08-03T17:58:42.132Z,34.03
2022-08-03T18:01:57.429Z,33.80
2022-08-03T18:04:29.612Z,33.61
2022-08-03T18:06:59.337Z,33.28
2022-08-03T18:10:04.008Z,33.21
2022-08-03T18:12:23.955Z,33.21
2022-08-03T18:15:08.704Z,32.96
2022-08-03T18:17:55.445Z,32.17
2022-08-03T18:20:34.030Z,31.77
2022-08-03T18:23:08.959Z,31.46
2022-08-03T18:25:45.292Z,31.20
2022-08-03T18:28:15.874Z,30.93
2022-08-03T18:30:54.470Z,30.76
2022-08-03T18:34:16.412Z,30.63
2022-08-03T18:36:21.783Z,30.47
2022-08-03T18:38:58.398Z,30.35
2022-08-03T18:41:32.619Z,30.19
2022-08-03T18:44:07.983Z,30.07
2022-08-03T18:47:07.414Z,30.00
2022-08-03T18:49:55.015Z,29.81
2022-08-03T18:52:45.890Z,29.61
2022-08-03T18:55:33.463Z,29.43
2022-08-03T18:58:18.012Z,29.29
2022-08-03T19:01:03.477Z,29.12
2022-08-03T19:03:42.938Z,29.01
2022-08-03T19:06:19.706Z,28.95
2022-08-03T19:09:04.135Z,28.86
2022-08-03T19:12:12.740Z,28.72
2022-08-03T19:14:44.624Z,28.63
2022-08-03T19:17:12.542Z,28.47
2022-08-03T19:19:45.160Z,28.27
2022-08-03T19:22:16.228Z,28.16
2022-08-03T19:24:49.198Z,28.02
2022-08-03T19:27:15.969Z,27.89
2022-08-03T19:29:58.036Z,27.71
2022-08-03T19:32:29.505Z,27.57
2022-08-03T19:34:57.156Z,27.49
2022-08-03T19:37:38.389Z,27.38
2022-08-03T19:40:10.797Z,27.33
2022-08-03T19:42:44.405Z,27.25
2022-08-03T19:45:15.421Z,27.15
2022-08-03T19:47:51.535Z,27.12
2022-08-03T19:50:20.115Z,27.10
2022-08-03T19:52:48.161Z,27.01
2022-08-03T19:55:17.087Z,26.91
2022-08-03T19:57:46.722Z,26.85
2022-08-03T20:00:19.575Z,26.77
2022-08-03T20:02:46.338Z,26.71
2022-08-03T20:05:15.390Z,26.60
2022-08-03T20:07:47.467Z,26.49
2022-08-03T20:10:15.912Z,26.39
2022-08-03T20:12:44.356Z,26.30
2022-08-03T20:15:11.381Z,26.22
2022-08-03T20:17:56.522Z,26.16
2022-08-03T20:20:29.599Z,26.06
2022-08-03T20:22:58.741Z,25.99
2022-08-03T20:25:38.186Z,25.89
2022-08-03T20:28:15.386Z,25.70
2022-08-03T20:30:44.468Z,25.58
2022-08-03T20:33:18.561Z,25.54
2022-08-03T20:35:49.844Z,25.45
2022-08-03T20:38:19.992Z,25.35
2022-08-03T20:40:54.091Z,25.30
2022-08-03T20:43:20.584Z,25.22
2022-08-03T20:45:58.529Z,25.10
2022-08-03T20:48:36.292Z,24.89
2022-08-03T20:51:19.984Z,24.75
2022-08-03T20:54:00.325Z,24.63
2022-08-03T20:56:31.877Z,24.53
2022-08-03T20:59:03.214Z,24.46
2022-08-03T21:01:36.100Z,24.33
2022-08-03T21:04:09.536Z,24.22
2022-08-03T21:06:41.617Z,24.11
2022-08-03T21:09:18.315Z,24.03
2022-08-03T21:11:49.129Z,23.93
2022-08-03T21:14:22.858Z,23.83
2022-08-03T21:16:51.542Z,23.71
2022-08-03T21:19:22.852Z,23.63
2022-08-03T21:21:50.162Z,23.56
2022-08-03T21:24:19.495Z,23.51
2022-08-03T21:26:49.229Z,23.42
2022-08-03T21:29:16.895Z,23.40
2022-08-03T21:31:43.589Z,23.41
2022-08-03T21:34:10.251Z,23.41
2022-08-03T21:36:37.731Z,23.39
2022-08-03T21:39:07.964Z,23.38
2022-08-03T21:41:36.068Z,23.39
2022-08-03T21:44:03.437Z,23.36
2022-08-03T21:46:35.123Z,23.31
2022-08-03T21:50:02.661Z,23.31
2022-08-03T21:51:57.681Z,23.29
2022-08-03T21:54:31.713Z,23.15
2022-08-03T21:57:02.966Z,23.03
2022-08-03T21:59:32.617Z,22.92
2022-08-03T22:01:59.320Z,22.83
2022-08-03T22:04:45.916Z,22.74
2022-08-03T22:07:14.155Z,22.68
2022-08-03T22:09:40.750Z,22.67
2022-08-03T22:12:23.635Z,22.59
2022-08-03T22:15:00.481Z,22.56
2022-08-03T22:17:55.060Z,22.58
2022-08-03T22:20:20.156Z,22.47
2022-08-03T22:22:50.165Z,22.40
2022-08-03T22:25:29.041Z,22.40
2022-08-03T22:27:56.624Z,22.41
2022-08-03T22:30:23.037Z,22.41
2022-08-03T22:32:53.068Z,22.41
2022-08-03T22:35:21.268Z,22.29
2022-08-03T22:37:53.784Z,22.22
2022-08-03T22:40:20.489Z,22.14
2022-08-03T22:42:49.502Z,22.08
2022-08-03T22:46:07.219Z,22.03
2022-08-03T22:48:07.685Z,22.02
2022-08-03T22:50:34.827Z,21.95
2022-08-03T22:53:01.431Z,21.86
2022-08-03T22:55:27.940Z,21.80
2022-08-03T22:57:55.684Z,21.72
2022-08-03T23:00:23.821Z,21.66
2022-08-03T23:02:53.112Z,21.57
2022-08-03T23:06:01.494Z,21.53
2022-08-03T23:08:22.990Z,21.44
2022-08-03T23:10:51.557Z,21.38
2022-08-03T23:13:19.244Z,21.34
2022-08-03T23:15:56.742Z,21.32
2022-08-03T23:18:24.923Z,21.27
2022-08-03T23:20:52.716Z,21.23
2022-08-03T23:23:20.588Z,21.20
2022-08-03T23:25:47.824Z,21.17
2022-08-03T23:28:16.282Z,21.14
2022-08-03T23:30:47.479Z,21.09
2022-08-03T23:33:15.527Z,21.06
2022-08-03T23:36:28.961Z,21.03
2022-08-03T23:38:44.983Z,20.92
2022-08-03T23:41:12.583Z,20.88
2022-08-03T23:43:51.114Z,20.86
2022-08-03T23:46:20.414Z,20.87
2022-08-03T23:48:46.858Z,20.82
2022-08-03T23:51:33.063Z,20.77
2022-08-03T23:54:18.235Z,20.75
2022-08-03T23:56:47.561Z,20.72
2022-08-03T23:59:27.895Z,20.70
